OEAB

Details ICAO OEAB (AHB)
Name ABHA
Region Saudi Arabia
Timezone Asia/Riyadh (UTC+3.0)
Plans Departing 48
Arriving 49
Stats Elevation 6,858 ft / 2,090 m (AMSL)
Location 18.240378° 42.656633°
Runways 1
Magnetic Variation 2.768° E
Sunrise 2017-12-12 03:32:56 UTC / 2017-12-12 06:32:56 Local
Sunset 2017-12-12 14:36:02 UTC / 2017-12-12 17:36:02 Local
Advertisement - Login to hide

Runways

ID Width Length Bearing (true) Bearing (mag) Surface Threshold Offset Overrun Length
13 148 ft / 45 m 11,036 ft / 3,364 m 129.07° 126.30° Asphalt 0 ft / 0 m 400 ft / 122 m
31 148 ft / 45 m 11,036 ft / 3,364 m 309.07° 306.30° Asphalt 0 ft / 0 m 400 ft / 122 m

Approach Navaids

Runway Type Ident Frequency Range Bearing (true) Bearing (mag) Slope Elevation
13 Localiser IABH 109.90 MHz 18 nm / 33 km 129.24° 126.47° - 6,858 ft / 2,090 m (AMSL)
13 Glidescope IABH 109.90 MHz 10 nm / 19 km 129.07° 126.30° 3.00° 6,858 ft / 2,090 m (AMSL)
13 DME IABH 109.90 MHz 18 nm / 33 km - - - 6,858 ft / 2,090 m (AMSL)

Map

Weather


0- 5 10 15 20 25 30 35+ Temperature / ° C

Clouds and Precipitation
Forecast for 2017-12-13 00:00 UTC. Updated an hour ago

Ground ~20,000 ft ~40,000 ft Winds

METAR

OEAB 122000Z 36008KT CAVOK 12/M19 Q1029 NOSIG

TAF

Not found

Frequencies

Ground 121.70 MHz GND
Approach 124.50 MHz KHAMIS APP
Tower 118.10 MHz TWR
Warning: Do not use this data for real-world aviation or navigation. No guarantee of current accuracy is given.